createdAt,value
2023-01-08T00:00:39.100Z,13.49
2023-01-08T00:03:41.515Z,13.49
2023-01-08T00:06:44.506Z,13.50
2023-01-08T00:09:47.827Z,13.50
2023-01-08T00:12:50.077Z,13.45
2023-01-08T00:15:52.438Z,13.51
2023-01-08T00:18:54.593Z,13.50
2023-01-08T00:21:56.708Z,13.52
2023-01-08T00:24:58.859Z,13.51
2023-01-08T00:28:01.029Z,13.50
2023-01-08T00:31:04.534Z,13.52
2023-01-08T00:34:06.814Z,13.50
2023-01-08T00:37:09.020Z,13.50
2023-01-08T00:40:11.260Z,13.51
2023-01-08T00:43:13.454Z,13.52
2023-01-08T00:46:15.735Z,13.53
2023-01-08T00:49:17.981Z,13.52
2023-01-08T00:52:20.247Z,13.53
2023-01-08T00:55:22.455Z,13.51
2023-01-08T00:58:24.555Z,13.51
2023-01-08T01:01:26.955Z,13.52
2023-01-08T01:04:29.341Z,13.51
2023-01-08T01:07:32.090Z,13.52
2023-01-08T01:10:34.245Z,13.54
2023-01-08T01:13:36.479Z,13.52
2023-01-08T01:16:40.096Z,13.53
2023-01-08T01:19:43.471Z,13.53
2023-01-08T01:22:45.589Z,13.51
2023-01-08T01:25:47.982Z,13.52
2023-01-08T01:28:52.289Z,13.53
2023-01-08T01:31:54.434Z,13.51
2023-01-08T01:34:56.629Z,13.51
2023-01-08T01:37:58.793Z,13.54
2023-01-08T01:41:01.024Z,13.52
2023-01-08T01:44:40.688Z,13.54
2023-01-08T01:47:45.998Z,13.54
2023-01-08T01:50:50.460Z,13.54
2023-01-08T01:53:52.639Z,13.54
2023-01-08T01:56:54.920Z,13.54
2023-01-08T01:59:59.464Z,13.51
2023-01-08T02:03:01.679Z,13.53
2023-01-08T02:06:35.520Z,13.53
2023-01-08T02:09:47.793Z,13.56
2023-01-08T02:13:05.524Z,13.55
2023-01-08T02:16:22.766Z,13.55
2023-01-08T02:19:43.182Z,13.54
2023-01-08T02:23:01.256Z,13.53
2023-01-08T02:26:14.837Z,13.54
2023-01-08T02:29:23.447Z,13.54
2023-01-08T02:32:29.023Z,13.55
2023-01-08T02:35:40.967Z,13.56
2023-01-08T02:38:54.168Z,13.54
2023-01-08T02:42:06.469Z,13.55
2023-01-08T02:45:30.290Z,13.55
2023-01-08T02:48:48.903Z,13.56
2023-01-08T02:51:53.990Z,13.54
2023-01-08T02:54:57.398Z,13.54
2023-01-08T02:57:59.773Z,13.55
2023-01-08T03:01:03.827Z,13.56
2023-01-08T03:04:10.147Z,13.56
2023-01-08T03:07:12.483Z,13.55
2023-01-08T03:10:14.682Z,13.56
2023-01-08T03:13:37.990Z,13.56
2023-01-08T03:16:45.592Z,13.57
2023-01-08T03:19:52.725Z,13.57
2023-01-08T03:22:57.245Z,13.57
2023-01-08T03:26:00.746Z,13.57
2023-01-08T03:29:05.183Z,13.57
2023-01-08T03:32:11.922Z,13.58
2023-01-08T03:35:17.280Z,13.58
2023-01-08T03:38:24.162Z,13.55
2023-01-08T03:41:29.186Z,13.58
2023-01-08T03:44:31.411Z,13.57
2023-01-08T03:47:36.086Z,13.59
2023-01-08T03:50:40.923Z,13.56
2023-01-08T03:53:43.170Z,13.58
2023-01-08T03:56:45.848Z,13.58
2023-01-08T03:59:48.127Z,13.58
2023-01-08T04:02:50.296Z,13.58
2023-01-08T04:05:52.435Z,13.57
2023-01-08T04:08:54.556Z,13.59
2023-01-08T04:11:56.714Z,13.58
2023-01-08T04:14:58.880Z,13.57
2023-01-08T04:18:01.062Z,13.58
2023-01-08T04:21:03.238Z,13.59
2023-01-08T04:24:05.872Z,13.59
2023-01-08T04:27:08.033Z,13.59
2023-01-08T04:30:10.883Z,13.57
2023-01-08T04:33:13.126Z,13.58
2023-01-08T04:36:15.599Z,13.59
2023-01-08T04:39:17.810Z,13.59
2023-01-08T04:42:19.980Z,13.60
2023-01-08T04:45:22.469Z,13.61
2023-01-08T04:48:24.884Z,13.60
2023-01-08T04:51:27.048Z,13.59
2023-01-08T04:54:29.147Z,13.58
2023-01-08T04:57:31.323Z,13.61
2023-01-08T05:00:33.641Z,13.56
2023-01-08T05:03:35.858Z,13.60
2023-01-08T05:06:38.077Z,13.60
2023-01-08T05:09:40.246Z,13.57
2023-01-08T05:12:42.379Z,13.60
2023-01-08T05:15:44.645Z,13.59
2023-01-08T05:18:46.933Z,13.61
2023-01-08T05:21:49.061Z,13.61
2023-01-08T05:24:51.251Z,13.61
2023-01-08T05:27:53.497Z,13.61
2023-01-08T05:30:56.041Z,13.61
2023-01-08T05:33:59.221Z,13.57
2023-01-08T05:37:01.415Z,13.60
2023-01-08T05:40:04.392Z,13.62
2023-01-08T05:43:06.757Z,13.62
2023-01-08T05:46:09.033Z,13.56
2023-01-08T05:49:11.206Z,13.62
2023-01-08T05:52:13.324Z,13.62
2023-01-08T05:55:15.658Z,13.60
2023-01-08T05:58:19.232Z,13.62
2023-01-08T06:01:21.739Z,13.62
2023-01-08T06:04:24.000Z,13.62
2023-01-08T06:07:26.249Z,13.63
2023-01-08T06:10:28.720Z,13.63
2023-01-08T06:13:30.913Z,13.62
2023-01-08T06:16:33.135Z,13.62
2023-01-08T06:19:35.325Z,13.63
2023-01-08T06:22:37.520Z,13.62
2023-01-08T06:25:39.782Z,13.62
2023-01-08T06:28:41.981Z,13.63
2023-01-08T06:31:44.142Z,13.64
2023-01-08T06:34:46.423Z,13.62
2023-01-08T06:37:48.551Z,13.63
2023-01-08T06:40:50.707Z,13.62
2023-01-08T06:43:52.882Z,13.62
2023-01-08T06:46:55.234Z,13.63
2023-01-08T06:49:59.152Z,13.64
2023-01-08T06:53:01.505Z,13.64
2023-01-08T06:56:04.674Z,13.64
2023-01-08T06:59:06.876Z,13.63
2023-01-08T07:02:13.732Z,13.65
2023-01-08T07:05:16.188Z,13.61
2023-01-08T07:08:18.412Z,13.63
2023-01-08T07:11:20.544Z,13.64
2023-01-08T07:14:22.702Z,13.63
2023-01-08T07:17:24.873Z,13.64
2023-01-08T07:20:27.054Z,13.63
2023-01-08T07:23:29.601Z,13.65
2023-01-08T07:26:32.047Z,13.64
2023-01-08T07:29:34.269Z,13.65
2023-01-08T07:32:36.422Z,13.65
2023-01-08T07:35:39.119Z,13.65
2023-01-08T07:38:42.401Z,13.65
2023-01-08T07:41:44.598Z,13.66
2023-01-08T07:44:46.790Z,13.66
2023-01-08T07:47:49.020Z,13.66
2023-01-08T07:50:51.394Z,13.66
2023-01-08T07:53:56.165Z,13.66
2023-01-08T07:56:58.374Z,13.67
2023-01-08T08:00:00.515Z,13.67
2023-01-08T08:03:04.557Z,13.66
2023-01-08T08:06:07.421Z,13.66
2023-01-08T08:09:09.627Z,13.67
2023-01-08T08:12:12.031Z,13.67
2023-01-08T08:15:14.222Z,13.68
2023-01-08T08:18:16.534Z,13.67
2023-01-08T08:21:18.731Z,13.68
2023-01-08T08:24:20.862Z,13.68
2023-01-08T08:27:24.258Z,13.69
2023-01-08T08:30:27.922Z,13.68
2023-01-08T08:33:30.115Z,13.69
2023-01-08T08:36:32.292Z,13.69
2023-01-08T08:39:34.425Z,13.69
2023-01-08T08:42:36.685Z,13.68
2023-01-08T08:45:38.882Z,13.69
2023-01-08T08:48:41.052Z,13.71
2023-01-08T08:51:43.226Z,13.69
2023-01-08T08:54:45.426Z,13.69
2023-01-08T08:57:48.405Z,13.71
2023-01-08T09:00:50.626Z,13.71
2023-01-08T09:03:52.776Z,13.72
2023-01-08T09:06:54.927Z,13.73
2023-01-08T09:09:57.098Z,13.73
2023-01-08T09:12:59.194Z,13.72
2023-01-08T09:16:01.517Z,13.73
2023-01-08T09:19:04.069Z,13.70
2023-01-08T09:22:06.188Z,13.73
2023-01-08T09:25:08.382Z,13.74
2023-01-08T09:28:12.343Z,13.75
2023-01-08T09:31:14.815Z,13.73
2023-01-08T09:34:17.177Z,13.76
2023-01-08T09:37:20.519Z,13.76
2023-01-08T09:40:25.387Z,13.76
2023-01-08T09:43:30.055Z,13.77
2023-01-08T09:46:32.501Z,13.77
2023-01-08T09:49:41.607Z,13.79
2023-01-08T09:52:44.000Z,13.79
2023-01-08T09:56:09.623Z,13.82
2023-01-08T09:59:17.941Z,13.82
2023-01-08T10:02:22.584Z,13.85
2023-01-08T10:05:26.431Z,13.86
2023-01-08T10:08:28.624Z,13.86
2023-01-08T10:11:42.521Z,13.88
2023-01-08T10:14:49.872Z,13.92
2023-01-08T10:18:01.205Z,13.92
2023-01-08T10:21:06.127Z,13.95
2023-01-08T10:24:08.460Z,13.96
2023-01-08T10:27:19.067Z,13.93
2023-01-08T10:30:43.065Z,13.97
2023-01-08T10:33:47.662Z,13.98
2023-01-08T10:36:51.871Z,13.95
2023-01-08T10:39:56.701Z,13.94
2023-01-08T10:43:06.648Z,13.94
2023-01-08T10:46:19.040Z,13.93
2023-01-08T10:49:21.189Z,13.95
2023-01-08T10:52:32.904Z,13.95
2023-01-08T10:55:37.609Z,13.95
2023-01-08T10:58:43.179Z,13.95
2023-01-08T11:01:48.084Z,13.95
2023-01-08T11:04:51.798Z,13.94
2023-01-08T11:07:56.720Z,13.94
2023-01-08T11:11:00.370Z,13.94
2023-01-08T11:14:06.101Z,13.96
2023-01-08T11:17:12.887Z,13.94
2023-01-08T11:20:39.194Z,13.95
2023-01-08T11:23:42.786Z,13.96
2023-01-08T11:26:54.038Z,13.95
2023-01-08T11:30:12.490Z,13.95
2023-01-08T11:33:18.850Z,13.91
2023-01-08T11:36:25.289Z,13.95
2023-01-08T11:39:27.406Z,13.94
2023-01-08T11:42:52.892Z,13.94
2023-01-08T11:46:04.105Z,13.98
2023-01-08T11:49:21.579Z,14.00
2023-01-08T11:52:40.987Z,14.01
2023-01-08T11:55:45.970Z,14.02
2023-01-08T11:59:07.175Z,14.02
2023-01-08T12:02:33.886Z,14.03
2023-01-08T12:05:50.055Z,14.02
2023-01-08T12:08:59.689Z,14.03
2023-01-08T12:12:13.478Z,14.03
2023-01-08T12:15:56.807Z,14.04
2023-01-08T12:19:13.478Z,14.05
2023-01-08T12:22:40.198Z,14.05
2023-01-08T12:25:51.386Z,14.05
2023-01-08T12:29:25.050Z,14.05
2023-01-08T12:32:53.295Z,14.06
2023-01-08T12:35:57.871Z,14.06
2023-01-08T12:39:06.253Z,14.06
2023-01-08T12:42:13.302Z,14.06
2023-01-08T12:45:28.773Z,14.06
2023-01-08T12:48:34.412Z,14.04
2023-01-08T12:51:48.709Z,14.05
2023-01-08T12:54:58.872Z,14.05
2023-01-08T12:58:18.713Z,14.05
2023-01-08T13:01:26.948Z,14.06
2023-01-08T13:04:40.037Z,14.04
2023-01-08T13:07:44.627Z,14.06
2023-01-08T13:10:51.405Z,14.03
2023-01-08T13:14:02.394Z,14.04
2023-01-08T13:17:07.062Z,14.04
2023-01-08T13:20:09.653Z,14.05
2023-01-08T13:23:23.749Z,14.05
2023-01-08T13:26:34.887Z,14.05
2023-01-08T13:29:52.770Z,14.05
2023-01-08T13:32:54.867Z,14.04
2023-01-08T13:36:16.306Z,14.06
2023-01-08T13:39:23.298Z,14.05
2023-01-08T13:42:28.621Z,14.05
2023-01-08T13:45:30.959Z,14.06
2023-01-08T13:48:40.996Z,14.06
2023-01-08T13:51:47.479Z,14.06
2023-01-08T13:54:49.672Z,14.03
2023-01-08T13:57:54.558Z,14.07
2023-01-08T14:00:57.344Z,14.05
2023-01-08T14:03:59.512Z,14.01
2023-01-08T14:07:13.636Z,14.07
2023-01-08T14:10:17.245Z,14.08
2023-01-08T14:13:24.635Z,14.07
2023-01-08T14:16:26.801Z,14.06
2023-01-08T14:19:29.086Z,14.07
2023-01-08T14:22:33.198Z,14.06
2023-01-08T14:25:35.393Z,14.05
2023-01-08T14:28:37.526Z,14.07
2023-01-08T14:31:46.168Z,14.08
2023-01-08T14:34:49.826Z,14.06
2023-01-08T14:37:52.011Z,14.07
2023-01-08T14:41:13.681Z,14.08
2023-01-08T14:44:18.977Z,14.08
2023-01-08T14:47:21.645Z,14.07
2023-01-08T14:50:34.523Z,14.08
2023-01-08T14:53:42.886Z,14.08
2023-01-08T14:56:48.025Z,14.08
2023-01-08T14:59:55.786Z,14.09
2023-01-08T15:02:58.066Z,14.08
2023-01-08T15:06:00.772Z,14.09
2023-01-08T15:09:03.748Z,14.08
2023-01-08T15:12:07.056Z,14.09
2023-01-08T15:15:20.080Z,14.10
2023-01-08T15:18:25.275Z,14.09
2023-01-08T15:21:27.496Z,14.11
2023-01-08T15:24:32.405Z,14.11
2023-01-08T15:27:37.232Z,14.09
2023-01-08T15:30:44.346Z,14.11
2023-01-08T15:33:46.539Z,14.10
2023-01-08T15:36:48.764Z,14.11
2023-01-08T15:39:51.043Z,14.11
2023-01-08T15:43:11.209Z,14.11
2023-01-08T15:46:14.908Z,14.09
2023-01-08T15:49:17.120Z,14.10
2023-01-08T15:52:21.565Z,14.10
2023-01-08T15:55:24.710Z,14.12
2023-01-08T15:58:26.896Z,14.11
2023-01-08T16:01:29.244Z,14.11
2023-01-08T16:04:31.505Z,14.12
2023-01-08T16:07:33.661Z,14.11
2023-01-08T16:10:35.907Z,14.06
2023-01-08T16:13:38.162Z,14.13
2023-01-08T16:16:40.365Z,14.14
2023-01-08T16:19:42.507Z,14.13
2023-01-08T16:22:44.969Z,14.13
2023-01-08T16:25:47.192Z,14.14
2023-01-08T16:28:49.386Z,14.14
2023-01-08T16:31:51.634Z,14.14
2023-01-08T16:34:54.951Z,14.12
2023-01-08T16:37:57.186Z,14.15
2023-01-08T16:41:02.487Z,14.16
2023-01-08T16:44:07.462Z,14.15
2023-01-08T16:47:09.671Z,14.16
2023-01-08T16:50:12.172Z,14.12
2023-01-08T16:53:17.284Z,14.16
2023-01-08T16:56:19.431Z,14.13
2023-01-08T16:59:24.034Z,14.16
2023-01-08T17:02:26.239Z,14.17
2023-01-08T17:05:28.761Z,14.16
2023-01-08T17:08:30.910Z,14.16
2023-01-08T17:11:33.141Z,14.16
2023-01-08T17:14:36.549Z,14.17
2023-01-08T17:17:38.812Z,14.18
2023-01-08T17:20:40.906Z,14.18
2023-01-08T17:23:43.138Z,14.14
2023-01-08T17:26:45.386Z,14.18
2023-01-08T17:29:47.509Z,14.17
2023-01-08T17:32:49.681Z,14.19
2023-01-08T17:35:51.830Z,14.19
2023-01-08T17:38:54.377Z,14.17
2023-01-08T17:42:15.458Z,14.19
2023-01-08T17:45:17.647Z,14.20
2023-01-08T17:48:19.775Z,14.18
2023-01-08T17:51:21.933Z,14.20
2023-01-08T17:54:24.302Z,14.20
2023-01-08T17:57:26.617Z,14.18
2023-01-08T18:00:28.793Z,14.20
2023-01-08T18:03:30.964Z,14.21
2023-01-08T18:06:33.148Z,14.20
2023-01-08T18:09:36.847Z,14.20
2023-01-08T18:12:40.479Z,14.21
2023-01-08T18:15:42.624Z,14.22
2023-01-08T18:18:44.855Z,14.21
2023-01-08T18:21:48.093Z,14.22
2023-01-08T18:24:50.331Z,14.21
2023-01-08T18:27:52.550Z,14.23
2023-01-08T18:30:54.736Z,14.20
2023-01-08T18:33:56.950Z,14.23
2023-01-08T18:36:59.058Z,14.24
2023-01-08T18:40:01.269Z,14.24
2023-01-08T18:43:03.547Z,14.22
2023-01-08T18:46:07.340Z,14.24
2023-01-08T18:49:09.616Z,14.23
2023-01-08T18:52:14.026Z,14.24
2023-01-08T18:55:16.195Z,14.25
2023-01-08T18:58:18.363Z,14.25
2023-01-08T19:01:20.773Z,14.25
2023-01-08T19:04:22.964Z,14.25
2023-01-08T19:07:25.953Z,14.25
2023-01-08T19:10:28.136Z,14.25
2023-01-08T19:13:30.359Z,14.21
2023-01-08T19:16:32.580Z,14.25
2023-01-08T19:19:34.936Z,14.26
2023-01-08T19:22:40.021Z,14.25
2023-01-08T19:25:42.668Z,14.27
2023-01-08T19:28:44.885Z,14.27
2023-01-08T19:31:47.174Z,14.26
2023-01-08T19:34:49.400Z,14.26
2023-01-08T19:37:51.532Z,14.27
2023-01-08T19:40:58.329Z,14.27
2023-01-08T19:44:00.478Z,14.27
2023-01-08T19:47:02.614Z,14.26
2023-01-08T19:50:05.469Z,14.26
2023-01-08T19:53:08.507Z,14.25
2023-01-08T19:56:12.986Z,14.29
2023-01-08T19:59:15.111Z,14.28
2023-01-08T20:02:17.375Z,14.28
2023-01-08T20:05:19.589Z,14.28
2023-01-08T20:08:21.836Z,14.28
2023-01-08T20:11:24.302Z,14.29
2023-01-08T20:14:26.575Z,14.29
2023-01-08T20:17:28.959Z,14.30
2023-01-08T20:20:31.274Z,14.28
2023-01-08T20:23:36.334Z,14.28
2023-01-08T20:26:38.744Z,14.30
2023-01-08T20:29:41.683Z,14.29
2023-01-08T20:32:43.852Z,14.30
2023-01-08T20:35:46.138Z,14.29
2023-01-08T20:38:53.457Z,14.29
2023-01-08T20:42:03.970Z,14.30
2023-01-08T20:45:08.605Z,14.30
2023-01-08T20:48:10.825Z,14.30
2023-01-08T20:51:12.979Z,14.31
2023-01-08T20:54:16.206Z,14.30
2023-01-08T20:57:21.228Z,14.30
2023-01-08T21:00:25.763Z,14.31
2023-01-08T21:03:28.020Z,14.31
2023-01-08T21:06:31.784Z,14.30
2023-01-08T21:09:33.901Z,14.30
2023-01-08T21:12:37.211Z,14.31
2023-01-08T21:15:39.424Z,14.31
2023-01-08T21:18:47.032Z,14.32
2023-01-08T21:21:49.273Z,14.30
2023-01-08T21:24:51.530Z,14.32
2023-01-08T21:27:53.728Z,14.27
2023-01-08T21:30:56.366Z,14.31
2023-01-08T21:34:00.014Z,14.30
2023-01-08T21:37:04.161Z,14.28
2023-01-08T21:40:06.781Z,14.31
2023-01-08T21:43:29.257Z,14.32
2023-01-08T21:46:31.440Z,14.31
2023-01-08T21:49:35.780Z,14.31
2023-01-08T21:52:56.480Z,14.31
2023-01-08T21:55:59.913Z,14.31
2023-01-08T21:59:02.083Z,14.30
2023-01-08T22:02:04.788Z,14.32
2023-01-08T22:05:07.406Z,14.33
2023-01-08T22:08:13.962Z,14.31
2023-01-08T22:11:16.109Z,14.33
2023-01-08T22:14:18.265Z,14.33
2023-01-08T22:17:20.670Z,14.33
2023-01-08T22:20:22.831Z,14.33
2023-01-08T22:23:24.903Z,14.34
2023-01-08T22:26:27.136Z,14.33
2023-01-08T22:29:29.337Z,14.33
2023-01-08T22:32:31.455Z,14.33
2023-01-08T22:35:33.601Z,14.34
2023-01-08T22:38:36.381Z,14.34
2023-01-08T22:41:38.561Z,14.33
2023-01-08T22:44:40.775Z,14.34
2023-01-08T22:47:42.932Z,14.32
2023-01-08T22:50:45.137Z,14.32
2023-01-08T22:53:47.311Z,14.33
2023-01-08T22:56:49.403Z,14.35
2023-01-08T22:59:52.210Z,14.34
2023-01-08T23:02:54.569Z,14.35
2023-01-08T23:06:03.274Z,14.33
2023-01-08T23:09:05.443Z,14.35
2023-01-08T23:12:07.766Z,14.35
2023-01-08T23:15:10.357Z,14.34
2023-01-08T23:18:12.500Z,14.35
2023-01-08T23:21:17.129Z,14.31
2023-01-08T23:24:19.405Z,14.36
2023-01-08T23:27:21.522Z,14.35
2023-01-08T23:30:23.755Z,14.36
2023-01-08T23:33:25.986Z,14.37
2023-01-08T23:36:28.219Z,14.35
2023-01-08T23:39:30.418Z,14.36
2023-01-08T23:42:32.659Z,14.37
2023-01-08T23:45:36.166Z,14.37
2023-01-08T23:48:38.342Z,14.37
2023-01-08T23:51:42.371Z,14.37
2023-01-08T23:54:44.560Z,14.37
2023-01-08T23:57:46.794Z,14.36
